sensor_id;sensor_type;location;lat;lon;timestamp;pressure;altitude;pressure_sealevel;temperature;humidity
50790;BME280;37287;47.554;7.844;2024-01-25T00:00:11;99330.25;;;8.73;100.00
50790;BME280;37287;47.554;7.844;2024-01-25T00:02:38;99326.00;;;8.72;100.00
50790;BME280;37287;47.554;7.844;2024-01-25T00:05:05;99321.69;;;8.71;100.00
50790;BME280;37287;47.554;7.844;2024-01-25T00:07:32;99323.59;;;8.71;100.00
50790;BME280;37287;47.554;7.844;2024-01-25T00:09:59;99333.59;;;8.70;100.00
50790;BME280;37287;47.554;7.844;2024-01-25T00:12:26;99328.22;;;8.70;100.00
50790;BME280;37287;47.554;7.844;2024-01-25T00:14:53;99322.81;;;8.70;100.00
50790;BME280;37287;47.554;7.844;2024-01-25T00:17:20;99330.13;;;8.70;100.00
50790;BME280;37287;47.554;7.844;2024-01-25T00:19:47;99330.13;;;8.70;100.00
50790;BME280;37287;47.554;7.844;2024-01-25T00:22:13;99335.19;;;8.71;100.00
50790;BME280;37287;47.554;7.844;2024-01-25T00:24:40;99332.81;;;8.70;100.00
50790;BME280;37287;47.554;7.844;2024-01-25T00:27:07;99333.94;;;8.69;100.00
50790;BME280;37287;47.554;7.844;2024-01-25T00:29:34;99336.63;;;8.69;100.00
50790;BME280;37287;47.554;7.844;2024-01-25T00:32:01;99331.22;;;8.69;100.00
50790;BME280;37287;47.554;7.844;2024-01-25T00:34:28;99333.59;;;8.70;100.00
50790;BME280;37287;47.554;7.844;2024-01-25T00:36:55;99337.09;;;8.71;100.00
50790;BME280;37287;47.554;7.844;2024-01-25T00:39:22;99335.84;;;8.68;100.00
50790;BME280;37287;47.554;7.844;2024-01-25T00:41:51;99337.75;;;8.68;100.00
50790;BME280;37287;47.554;7.844;2024-01-25T00:44:18;99345.06;;;8.67;100.00
50790;BME280;37287;47.554;7.844;2024-01-25T00:46:45;99339.66;;;8.67;100.00
50790;BME280;37287;47.554;7.844;2024-01-25T00:49:14;99343.97;;;8.68;100.00
50790;BME280;37287;47.554;7.844;2024-01-25T00:51:46;99340.44;;;8.68;100.00
50790;BME280;37287;47.554;7.844;2024-01-25T00:54:14;99332.69;;;8.66;100.00
50790;BME280;37287;47.554;7.844;2024-01-25T00:56:41;99339.66;;;8.67;100.00
50790;BME280;37287;47.554;7.844;2024-01-25T00:59:08;99334.94;;;8.64;100.00
50790;BME280;37287;47.554;7.844;2024-01-25T01:01:35;99332.22;;;8.64;100.00
50790;BME280;37287;47.554;7.844;2024-01-25T01:04:02;99317.13;;;8.63;100.00
50790;BME280;37287;47.554;7.844;2024-01-25T01:06:29;99322.09;;;8.61;100.00
50790;BME280;37287;47.554;7.844;2024-01-25T01:08:56;99323.66;;;8.62;100.00
50790;BME280;37287;47.554;7.844;2024-01-25T01:11:23;99322.09;;;8.61;100.00
50790;BME280;37287;47.554;7.844;2024-01-25T01:13:50;99317.78;;;8.60;100.00
50790;BME280;37287;47.554;7.844;2024-01-25T01:16:16;99313.50;;;8.59;100.00
50790;BME280;37287;47.554;7.844;2024-01-25T01:18:43;99304.63;;;8.58;100.00
50790;BME280;37287;47.554;7.844;2024-01-25T01:21:10;99305.72;;;8.57;100.00
50790;BME280;37287;47.554;7.844;2024-01-25T01:23:37;99306.06;;;8.56;100.00
50790;BME280;37287;47.554;7.844;2024-01-25T01:26:04;99309.53;;;8.56;100.00
50790;BME280;37287;47.554;7.844;2024-01-25T01:28:31;99313.06;;;8.57;100.00
50790;BME280;37287;47.554;7.844;2024-01-25T01:30:58;99308.44;;;8.57;100.00
50790;BME280;37287;47.554;7.844;2024-01-25T01:33:25;99310.34;;;8.57;100.00
50790;BME280;37287;47.554;7.844;2024-01-25T01:35:51;99314.94;;;8.56;100.00
50790;BME280;37287;47.554;7.844;2024-01-25T01:38:18;99308.75;;;8.56;100.00
50790;BME280;37287;47.554;7.844;2024-01-25T01:40:45;99312.56;;;8.55;100.00
50790;BME280;37287;47.554;7.844;2024-01-25T01:43:19;99317.97;;;8.55;100.00
50790;BME280;37287;47.554;7.844;2024-01-25T01:45:47;99309.88;;;8.55;100.00
50790;BME280;37287;47.554;7.844;2024-01-25T01:48:14;99310.19;;;8.53;100.00
50790;BME280;37287;47.554;7.844;2024-01-25T01:50:43;99317.97;;;8.55;100.00
50790;BME280;37287;47.554;7.844;2024-01-25T01:53:10;99316.38;;;8.54;100.00
50790;BME280;37287;47.554;7.844;2024-01-25T01:55:37;99316.38;;;8.54;100.00
50790;BME280;37287;47.554;7.844;2024-01-25T01:58:06;99312.13;;;8.53;100.00
50790;BME280;37287;47.554;7.844;2024-01-25T02:00:33;99310.97;;;8.54;100.00
50790;BME280;37287;47.554;7.844;2024-01-25T02:03:00;99300.50;;;8.52;100.00
50790;BME280;37287;47.554;7.844;2024-01-25T02:05:29;99301.31;;;8.53;100.00
50790;BME280;37287;47.554;7.844;2024-01-25T02:07:55;99298.63;;;8.53;100.00
50790;BME280;37287;47.554;7.844;2024-01-25T02:10:22;99295.13;;;8.52;100.00
50790;BME280;37287;47.554;7.844;2024-01-25T02:12:49;99289.72;;;8.52;100.00
50790;BME280;37287;47.554;7.844;2024-01-25T02:15:16;99286.25;;;8.52;100.00
50790;BME280;37287;47.554;7.844;2024-01-25T02:17:42;99288.16;;;8.51;100.00
50790;BME280;37287;47.554;7.844;2024-01-25T02:20:09;99283.53;;;8.52;100.00
50790;BME280;37287;47.554;7.844;2024-01-25T02:22:37;99280.06;;;8.51;100.00
50790;BME280;37287;47.554;7.844;2024-01-25T02:25:04;99281.63;;;8.52;100.00
50790;BME280;37287;47.554;7.844;2024-01-25T02:27:31;99285.13;;;8.53;100.00
50790;BME280;37287;47.554;7.844;2024-01-25T02:29:58;99281.63;;;8.52;100.00
50790;BME280;37287;47.554;7.844;2024-01-25T02:32:25;99275.13;;;8.53;100.00
50790;BME280;37287;47.554;7.844;2024-01-25T02:34:51;99274.31;;;8.53;100.00
50790;BME280;37287;47.554;7.844;2024-01-25T02:37:18;99272.75;;;8.52;100.00
50790;BME280;37287;47.554;7.844;2024-01-25T02:39:45;99275.44;;;8.52;100.00
50790;BME280;37287;47.554;7.844;2024-01-25T02:42:12;99282.44;;;8.53;100.00
50790;BME280;37287;47.554;7.844;2024-01-25T02:44:40;99272.75;;;8.52;100.00
50790;BME280;37287;47.554;7.844;2024-01-25T02:47:06;99272.75;;;8.52;100.00
50790;BME280;37287;47.554;7.844;2024-01-25T02:49:33;99268.13;;;8.52;100.00
50790;BME280;37287;47.554;7.844;2024-01-25T02:52:00;99274.31;;;8.53;100.00
50790;BME280;37287;47.554;7.844;2024-01-25T02:54:27;99263.88;;;8.51;100.00
50790;BME280;37287;47.554;7.844;2024-01-25T02:56:54;99266.22;;;8.53;100.00
50790;BME280;37287;47.554;7.844;2024-01-25T02:59:21;99261.94;;;8.52;100.00
50790;BME280;37287;47.554;7.844;2024-01-25T03:01:48;99265.44;;;8.52;100.00
50790;BME280;37287;47.554;7.844;2024-01-25T03:04:16;99257.31;;;8.52;100.00
50790;BME280;37287;47.554;7.844;2024-01-25T03:06:43;99260.84;;;8.53;100.00
50790;BME280;37287;47.554;7.844;2024-01-25T03:09:10;99263.53;;;8.53;100.00
50790;BME280;37287;47.554;7.844;2024-01-25T03:11:37;99256.53;;;8.52;100.00
50790;BME280;37287;47.554;7.844;2024-01-25T03:14:04;99251.94;;;8.52;100.00
50790;BME280;37287;47.554;7.844;2024-01-25T03:16:30;99244.63;;;8.53;100.00
50790;BME280;37287;47.554;7.844;2024-01-25T03:18:57;99249.22;;;8.52;100.00
50790;BME280;37287;47.554;7.844;2024-01-25T03:21:24;99249.72;;;8.54;100.00
50790;BME280;37287;47.554;7.844;2024-01-25T03:23:52;99255.09;;;8.54;100.00
50790;BME280;37287;47.554;7.844;2024-01-25T03:26:19;99255.09;;;8.54;100.00
50790;BME280;37287;47.554;7.844;2024-01-25T03:28:45;99254.28;;;8.54;100.00
50790;BME280;37287;47.554;7.844;2024-01-25T03:31:12;99255.88;;;8.55;100.00
50790;BME280;37287;47.554;7.844;2024-01-25T03:33:39;99245.09;;;8.55;100.00
50790;BME280;37287;47.554;7.844;2024-01-25T03:36:06;99246.69;;;8.56;100.00
50790;BME280;37287;47.554;7.844;2024-01-25T03:38:33;99237.00;;;8.55;100.00
50790;BME280;37287;47.554;7.844;2024-01-25T03:41:00;99247.78;;;8.55;100.00
50790;BME280;37287;47.554;7.844;2024-01-25T03:43:27;99243.97;;;8.56;100.00
50790;BME280;37287;47.554;7.844;2024-01-25T03:46:08;99242.06;;;8.56;100.00
50790;BME280;37287;47.554;7.844;2024-01-25T03:48:35;99243.66;;;8.57;100.00
50790;BME280;37287;47.554;7.844;2024-01-25T03:51:01;99246.34;;;8.57;100.00
50790;BME280;37287;47.554;7.844;2024-01-25T03:53:28;99243.66;;;8.57;100.00
50790;BME280;37287;47.554;7.844;2024-01-25T03:55:55;99250.31;;;8.60;100.00
50790;BME280;37287;47.554;7.844;2024-01-25T03:58:21;99244.91;;;8.60;100.00
50790;BME280;37287;47.554;7.844;2024-01-25T04:00:48;99247.59;;;8.60;100.00
50790;BME280;37287;47.554;7.844;2024-01-25T04:03:15;99246.50;;;8.61;100.00
50790;BME280;37287;47.554;7.844;2024-01-25T04:05:42;99249.97;;;8.62;100.00
50790;BME280;37287;47.554;7.844;2024-01-25T04:08:09;99251.91;;;8.61;100.00
50790;BME280;37287;47.554;7.844;2024-01-25T04:10:36;99243.78;;;8.61;100.00
50790;BME280;37287;47.554;7.844;2024-01-25T04:13:03;99251.91;;;8.61;100.00
50790;BME280;37287;47.554;7.844;2024-01-25T04:15:34;99250.31;;;8.60;100.00
50790;BME280;37287;47.554;7.844;2024-01-25T04:18:01;99244.91;;;8.60;100.00
50790;BME280;37287;47.554;7.844;2024-01-25T04:20:29;99246.50;;;8.61;100.00
50790;BME280;37287;47.554;7.844;2024-01-25T04:22:56;99251.56;;;8.63;100.00
50790;BME280;37287;47.554;7.844;2024-01-25T04:25:22;99250.31;;;8.60;100.00
50790;BME280;37287;47.554;7.844;2024-01-25T04:27:49;99251.41;;;8.59;100.00
50790;BME280;37287;47.554;7.844;2024-01-25T04:30:16;99250.63;;;8.58;100.00
50790;BME280;37287;47.554;7.844;2024-01-25T04:32:43;99253.00;;;8.60;100.00
50790;BME280;37287;47.554;7.844;2024-01-25T04:35:10;99247.59;;;8.60;100.00
50790;BME280;37287;47.554;7.844;2024-01-25T04:37:36;99257.59;;;8.59;100.00
50790;BME280;37287;47.554;7.844;2024-01-25T04:40:03;99264.59;;;8.60;100.00
50790;BME280;37287;47.554;7.844;2024-01-25T04:42:32;99271.56;;;8.62;100.00
50790;BME280;37287;47.554;7.844;2024-01-25T04:44:59;99279.34;;;8.63;100.00
50790;BME280;37287;47.554;7.844;2024-01-25T04:47:25;99278.56;;;8.63;100.00
50790;BME280;37287;47.554;7.844;2024-01-25T04:49:52;99277.75;;;8.62;100.00
50790;BME280;37287;47.554;7.844;2024-01-25T04:52:19;99280.13;;;8.64;100.00
50790;BME280;37287;47.554;7.844;2024-01-25T04:54:49;99272.34;;;8.62;100.00
50790;BME280;37287;47.554;7.844;2024-01-25T04:57:16;99274.59;;;8.60;100.00
50790;BME280;37287;47.554;7.844;2024-01-25T04:59:43;99267.28;;;8.60;100.00
50790;BME280;37287;47.554;7.844;2024-01-25T05:02:10;99271.09;;;8.59;100.00
50790;BME280;37287;47.554;7.844;2024-01-25T05:04:36;99273.50;;;8.61;100.00
50790;BME280;37287;47.554;7.844;2024-01-25T05:07:03;99269.66;;;8.62;100.00
50790;BME280;37287;47.554;7.844;2024-01-25T05:09:30;99272.34;;;8.62;100.00
50790;BME280;37287;47.554;7.844;2024-01-25T05:11:57;99277.75;;;8.62;100.00
50790;BME280;37287;47.554;7.844;2024-01-25T05:14:25;99283.97;;;8.63;100.00
50790;BME280;37287;47.554;7.844;2024-01-25T05:16:52;99284.75;;;8.63;100.00
50790;BME280;37287;47.554;7.844;2024-01-25T05:19:18;99292.06;;;8.63;100.00
50790;BME280;37287;47.554;7.844;2024-01-25T05:21:45;99299.34;;;8.62;100.00
50790;BME280;37287;47.554;7.844;2024-01-25T05:24:12;99296.66;;;8.62;100.00
50790;BME280;37287;47.554;7.844;2024-01-25T05:26:39;99304.75;;;8.62;100.00
50790;BME280;37287;47.554;7.844;2024-01-25T05:29:06;99310.16;;;8.62;100.00
50790;BME280;37287;47.554;7.844;2024-01-25T05:31:32;99310.16;;;8.62;100.00
50790;BME280;37287;47.554;7.844;2024-01-25T05:33:59;99311.28;;;8.61;100.00
50790;BME280;37287;47.554;7.844;2024-01-25T05:36:26;99311.28;;;8.61;100.00
50790;BME280;37287;47.554;7.844;2024-01-25T05:38:53;99312.41;;;8.60;100.00
50790;BME280;37287;47.554;7.844;2024-01-25T05:41:19;99313.19;;;8.60;100.00
50790;BME280;37287;47.554;7.844;2024-01-25T05:43:46;99318.56;;;8.60;100.00
50790;BME280;37287;47.554;7.844;2024-01-25T05:46:13;99321.28;;;8.60;100.00
50790;BME280;37287;47.554;7.844;2024-01-25T05:48:39;99321.59;;;8.59;100.00
50790;BME280;37287;47.554;7.844;2024-01-25T05:51:06;99327.78;;;8.59;100.00
50790;BME280;37287;47.554;7.844;2024-01-25T05:53:33;99316.19;;;8.59;100.00
50790;BME280;37287;47.554;7.844;2024-01-25T05:56:00;99320.81;;;8.58;100.00
50790;BME280;37287;47.554;7.844;2024-01-25T05:58:26;99319.22;;;8.57;100.00
50790;BME280;37287;47.554;7.844;2024-01-25T06:00:53;99319.22;;;8.57;100.00
50790;BME280;37287;47.554;7.844;2024-01-25T06:03:20;99318.91;;;8.59;100.00
50790;BME280;37287;47.554;7.844;2024-01-25T06:05:47;99326.56;;;8.57;100.00
50790;BME280;37287;47.554;7.844;2024-01-25T06:08:13;99323.84;;;8.57;100.00
50790;BME280;37287;47.554;7.844;2024-01-25T06:10:40;99319.56;;;8.56;100.00
50790;BME280;37287;47.554;7.844;2024-01-25T06:13:07;99318.78;;;8.55;100.00
50790;BME280;37287;47.554;7.844;2024-01-25T06:15:34;99326.06;;;8.55;100.00
50790;BME280;37287;47.554;7.844;2024-01-25T06:18:01;99320.66;;;8.55;100.00
50790;BME280;37287;47.554;7.844;2024-01-25T06:20:27;99319.88;;;8.54;100.00
50790;BME280;37287;47.554;7.844;2024-01-25T06:22:54;99321.78;;;8.54;100.00
50790;BME280;37287;47.554;7.844;2024-01-25T06:25:21;99324.47;;;8.54;100.00
50790;BME280;37287;47.554;7.844;2024-01-25T06:27:49;99320.22;;;8.53;100.00
50790;BME280;37287;47.554;7.844;2024-01-25T06:30:15;99328.31;;;8.53;100.00
50790;BME280;37287;47.554;7.844;2024-01-25T06:32:42;99339.13;;;8.53;100.00
50790;BME280;37287;47.554;7.844;2024-01-25T06:35:09;99341.81;;;8.53;100.00
50790;BME280;37287;47.554;7.844;2024-01-25T06:37:36;99336.41;;;8.53;100.00
50790;BME280;37287;47.554;7.844;2024-01-25T06:40:03;99343.69;;;8.52;100.00
50790;BME280;37287;47.554;7.844;2024-01-25T06:42:31;99340.22;;;8.52;100.00
50790;BME280;37287;47.554;7.844;2024-01-25T06:44:58;99334.81;;;8.52;100.00
50790;BME280;37287;47.554;7.844;2024-01-25T06:47:24;99342.91;;;8.52;100.00
50790;BME280;37287;47.554;7.844;2024-01-25T06:49:51;99342.91;;;8.52;100.00
50790;BME280;37287;47.554;7.844;2024-01-25T06:52:18;99344.03;;;8.51;100.00
50790;BME280;37287;47.554;7.844;2024-01-25T06:54:45;99335.94;;;8.51;100.00
50790;BME280;37287;47.554;7.844;2024-01-25T06:57:12;99345.16;;;8.50;100.00
50790;BME280;37287;47.554;7.844;2024-01-25T06:59:40;99350.56;;;8.50;100.00
50790;BME280;37287;47.554;7.844;2024-01-25T07:02:07;99355.16;;;8.49;100.00
50790;BME280;37287;47.554;7.844;2024-01-25T07:04:35;99360.56;;;8.49;100.00
50790;BME280;37287;47.554;7.844;2024-01-25T07:07:02;99360.56;;;8.49;100.00
50790;BME280;37287;47.554;7.844;2024-01-25T07:09:29;99346.28;;;8.49;100.00
50790;BME280;37287;47.554;7.844;2024-01-25T07:11:56;99355.97;;;8.50;100.00
50790;BME280;37287;47.554;7.844;2024-01-25T07:14:22;99361.38;;;8.50;100.00
50790;BME280;37287;47.554;7.844;2024-01-25T07:16:49;99356.75;;;8.50;100.00
50790;BME280;37287;47.554;7.844;2024-01-25T07:19:16;99351.69;;;8.49;100.00
50790;BME280;37287;47.554;7.844;2024-01-25T07:21:43;99354.38;;;8.49;100.00
50790;BME280;37287;47.554;7.844;2024-01-25T07:24:12;99358.97;;;8.48;100.00
50790;BME280;37287;47.554;7.844;2024-01-25T07:26:39;99358.19;;;8.48;100.00
50790;BME280;37287;47.554;7.844;2024-01-25T07:29:05;99353.56;;;8.48;100.00
50790;BME280;37287;47.554;7.844;2024-01-25T07:31:32;99359.78;;;8.49;100.00
50790;BME280;37287;47.554;7.844;2024-01-25T07:33:59;99363.59;;;8.48;100.00
50790;BME280;37287;47.554;7.844;2024-01-25T07:36:26;99360.88;;;8.48;100.00
50790;BME280;37287;47.554;7.844;2024-01-25T07:38:53;99352.78;;;8.48;100.00
50790;BME280;37287;47.554;7.844;2024-01-25T07:41:19;99360.88;;;8.48;100.00
50790;BME280;37287;47.554;7.844;2024-01-25T07:43:46;99356.59;;;8.47;100.00
50790;BME280;37287;47.554;7.844;2024-01-25T07:46:13;99363.59;;;8.48;100.00
50790;BME280;37287;47.554;7.844;2024-01-25T07:48:42;99355.47;;;8.48;100.00
50790;BME280;37287;47.554;7.844;2024-01-25T07:51:13;99352.78;;;8.48;100.00
50790;BME280;37287;47.554;7.844;2024-01-25T07:53:40;99356.59;;;8.47;100.00
50790;BME280;37287;47.554;7.844;2024-01-25T07:56:07;99367.38;;;8.47;100.00
50790;BME280;37287;47.554;7.844;2024-01-25T07:58:35;99362.81;;;8.47;100.00
50790;BME280;37287;47.554;7.844;2024-01-25T08:01:06;99357.41;;;8.47;100.00
50790;BME280;37287;47.554;7.844;2024-01-25T08:03:33;99359.78;;;8.49;100.00
50790;BME280;37287;47.554;7.844;2024-01-25T08:06:02;99355.47;;;8.48;100.00
50790;BME280;37287;47.554;7.844;2024-01-25T08:08:32;99360.88;;;8.48;100.00
50790;BME280;37287;47.554;7.844;2024-01-25T08:10:59;99365.16;;;8.49;100.00
50790;BME280;37287;47.554;7.844;2024-01-25T08:13:26;99359.78;;;8.49;100.00
50790;BME280;37287;47.554;7.844;2024-01-25T08:16:00;99358.97;;;8.48;100.00
50790;BME280;37287;47.554;7.844;2024-01-25T08:18:27;99358.97;;;8.48;100.00
50790;BME280;37287;47.554;7.844;2024-01-25T08:20:56;99367.88;;;8.49;100.00
50790;BME280;37287;47.554;7.844;2024-01-25T08:23:23;99372.47;;;8.48;100.00
50790;BME280;37287;47.554;7.844;2024-01-25T08:25:50;99368.97;;;8.48;100.00
50790;BME280;37287;47.554;7.844;2024-01-25T08:28:17;99362.81;;;8.47;100.00
50790;BME280;37287;47.554;7.844;2024-01-25T08:30:44;99367.38;;;8.47;100.00
50790;BME280;37287;47.554;7.844;2024-01-25T08:33:11;99372.78;;;8.47;100.00
50790;BME280;37287;47.554;7.844;2024-01-25T08:35:38;99368.19;;;8.47;100.00
50790;BME280;37287;47.554;7.844;2024-01-25T08:38:07;99366.59;;;8.46;100.00
50790;BME280;37287;47.554;7.844;2024-01-25T08:40:33;99371.22;;;8.46;100.00
50790;BME280;37287;47.554;7.844;2024-01-25T08:43:00;99382.00;;;8.46;100.00
50790;BME280;37287;47.554;7.844;2024-01-25T08:45:27;99376.63;;;8.46;100.00
50790;BME280;37287;47.554;7.844;2024-01-25T08:47:54;99377.41;;;8.46;100.00
50790;BME280;37287;47.554;7.844;2024-01-25T08:50:22;99382.00;;;8.46;100.00
50790;BME280;37287;47.554;7.844;2024-01-25T08:52:52;99382.00;;;8.46;100.00
50790;BME280;37287;47.554;7.844;2024-01-25T08:55:19;99381.22;;;8.45;100.00
50790;BME280;37287;47.554;7.844;2024-01-25T08:57:48;99385.81;;;8.45;100.00
50790;BME280;37287;47.554;7.844;2024-01-25T09:00:15;99384.72;;;8.46;100.00
50790;BME280;37287;47.554;7.844;2024-01-25T09:02:41;99392.00;;;8.45;100.00
50790;BME280;37287;47.554;7.844;2024-01-25T09:05:09;99397.41;;;8.45;100.00
50790;BME280;37287;47.554;7.844;2024-01-25T09:07:37;99400.91;;;8.46;100.00
50790;BME280;37287;47.554;7.844;2024-01-25T09:10:05;99409.00;;;8.46;100.00
50790;BME280;37287;47.554;7.844;2024-01-25T09:12:32;99402.03;;;8.45;100.00
50790;BME280;37287;47.554;7.844;2024-01-25T09:14:58;99404.72;;;8.45;100.00
50790;BME280;37287;47.554;7.844;2024-01-25T09:17:25;99407.41;;;8.45;100.00
50790;BME280;37287;47.554;7.844;2024-01-25T09:19:52;99415.50;;;8.45;100.00
50790;BME280;37287;47.554;7.844;2024-01-25T09:22:19;99407.41;;;8.45;100.00
50790;BME280;37287;47.554;7.844;2024-01-25T09:24:46;99407.41;;;8.45;100.00
50790;BME280;37287;47.554;7.844;2024-01-25T09:27:14;99409.00;;;8.46;100.00
50790;BME280;37287;47.554;7.844;2024-01-25T09:29:41;99405.97;;;8.47;100.00
50790;BME280;37287;47.554;7.844;2024-01-25T09:32:09;99405.97;;;8.47;100.00
50790;BME280;37287;47.554;7.844;2024-01-25T09:34:37;99395.97;;;8.48;100.00
50790;BME280;37287;47.554;7.844;2024-01-25T09:37:06;99402.16;;;8.48;100.00
50790;BME280;37287;47.554;7.844;2024-01-25T09:39:33;99400.25;;;8.49;100.00
50790;BME280;37287;47.554;7.844;2024-01-25T09:42:00;99403.75;;;8.49;100.00
50790;BME280;37287;47.554;7.844;2024-01-25T09:44:26;99415.34;;;8.50;100.00
50790;BME280;37287;47.554;7.844;2024-01-25T09:46:53;99405.34;;;8.50;100.00
50790;BME280;37287;47.554;7.844;2024-01-25T09:49:20;99408.03;;;8.50;100.00
50790;BME280;37287;47.554;7.844;2024-01-25T09:51:50;99396.13;;;8.51;100.00
50790;BME280;37287;47.554;7.844;2024-01-25T09:54:17;99402.31;;;8.52;100.00
50790;BME280;37287;47.554;7.844;2024-01-25T09:56:45;99410.41;;;8.52;100.00
50790;BME280;37287;47.554;7.844;2024-01-25T09:59:12;99410.41;;;8.52;100.00
50790;BME280;37287;47.554;7.844;2024-01-25T10:01:39;99414.69;;;8.53;100.00
50790;BME280;37287;47.554;7.844;2024-01-25T10:04:08;99403.56;;;8.54;100.00
50790;BME280;37287;47.554;7.844;2024-01-25T10:06:35;99410.22;;;8.57;100.00
50790;BME280;37287;47.554;7.844;2024-01-25T10:09:04;99406.88;;;8.60;100.00
50790;BME280;37287;47.554;7.844;2024-01-25T10:11:31;99406.56;;;8.62;100.00
50790;BME280;37287;47.554;7.844;2024-01-25T10:14:08;99406.22;;;8.63;100.00
50790;BME280;37287;47.554;7.844;2024-01-25T10:16:35;99412.88;;;8.66;100.00
50790;BME280;37287;47.554;7.844;2024-01-25T10:19:06;99408.75;;;8.68;100.00
50790;BME280;37287;47.554;7.844;2024-01-25T10:21:35;99410.81;;;8.71;100.00
50790;BME280;37287;47.554;7.844;2024-01-25T10:24:05;99410.81;;;8.71;100.00
50790;BME280;37287;47.554;7.844;2024-01-25T10:26:34;99403.97;;;8.74;100.00
50790;BME280;37287;47.554;7.844;2024-01-25T10:29:01;99407.13;;;8.76;100.00
50790;BME280;37287;47.554;7.844;2024-01-25T10:31:30;99406.34;;;8.75;100.00
50790;BME280;37287;47.554;7.844;2024-01-25T10:33:59;99398.34;;;8.79;100.00
50790;BME280;37287;47.554;7.844;2024-01-25T10:36:27;99390.41;;;8.83;100.00
50790;BME280;37287;47.554;7.844;2024-01-25T10:38:54;99385.00;;;8.83;100.00
50790;BME280;37287;47.554;7.844;2024-01-25T10:41:23;99382.75;;;8.85;100.00
50790;BME280;37287;47.554;7.844;2024-01-25T10:43:53;99382.31;;;8.83;100.00
50790;BME280;37287;47.554;7.844;2024-01-25T10:46:20;99383.09;;;8.83;100.00
50790;BME280;37287;47.554;7.844;2024-01-25T10:48:47;99380.88;;;8.85;100.00
50790;BME280;37287;47.554;7.844;2024-01-25T10:51:15;99386.28;;;8.85;100.00
50790;BME280;37287;47.554;7.844;2024-01-25T10:53:45;99379.41;;;8.88;100.00
50790;BME280;37287;47.554;7.844;2024-01-25T10:56:12;99380.66;;;8.90;100.00
50790;BME280;37287;47.554;7.844;2024-01-25T10:58:41;99381.25;;;8.96;100.00
50790;BME280;37287;47.554;7.844;2024-01-25T11:01:09;99380.59;;;8.99;100.00
50790;BME280;37287;47.554;7.844;2024-01-25T11:03:42;99376.47;;;9.02;100.00
50790;BME280;37287;47.554;7.844;2024-01-25T11:06:10;99376.13;;;9.03;100.00
50790;BME280;37287;47.554;7.844;2024-01-25T11:08:38;99373.75;;;9.02;100.00
50790;BME280;37287;47.554;7.844;2024-01-25T11:11:06;99375.69;;;9.01;100.00
50790;BME280;37287;47.554;7.844;2024-01-25T11:13:43;99366.13;;;9.04;100.00
50790;BME280;37287;47.554;7.844;2024-01-25T11:16:28;99368.94;;;9.07;100.00
50790;BME280;37287;47.554;7.844;2024-01-25T11:18:57;99372.31;;;9.04;100.00
50790;BME280;37287;47.554;7.844;2024-01-25T11:21:39;99360.84;;;9.07;100.00
50790;BME280;37287;47.554;7.844;2024-01-25T11:24:14;99352.09;;;9.10;100.00
50790;BME280;37287;47.554;7.844;2024-01-25T11:26:44;99357.50;;;9.10;100.00
50790;BME280;37287;47.554;7.844;2024-01-25T11:29:19;99355.94;;;9.09;100.00
50790;BME280;37287;47.554;7.844;2024-01-25T11:31:47;99353.06;;;9.06;100.00
50790;BME280;37287;47.554;7.844;2024-01-25T11:34:15;99351.19;;;9.06;100.00
50790;BME280;37287;47.554;7.844;2024-01-25T11:36:43;99351.19;;;9.06;100.00
50790;BME280;37287;47.554;7.844;2024-01-25T11:39:10;99348.81;;;9.05;100.00
50790;BME280;37287;47.554;7.844;2024-01-25T11:41:38;99348.59;;;9.10;100.00
50790;BME280;37287;47.554;7.844;2024-01-25T11:44:05;99348.75;;;9.14;100.00
50790;BME280;37287;47.554;7.844;2024-01-25T11:46:31;99348.88;;;9.17;100.00
50790;BME280;37287;47.554;7.844;2024-01-25T11:49:03;99338.53;;;9.19;100.00
50790;BME280;37287;47.554;7.844;2024-01-25T11:51:30;99332.31;;;9.19;100.00
50790;BME280;37287;47.554;7.844;2024-01-25T11:53:57;99331.19;;;9.20;100.00
50790;BME280;37287;47.554;7.844;2024-01-25T11:56:28;99321.19;;;9.20;100.00
50790;BME280;37287;47.554;7.844;2024-01-25T11:58:57;99312.75;;;9.22;100.00
50790;BME280;37287;47.554;7.844;2024-01-25T12:01:25;99313.66;;;9.26;100.00
50790;BME280;37287;47.554;7.844;2024-01-25T12:03:53;99312.53;;;9.27;100.00
50790;BME280;37287;47.554;7.844;2024-01-25T12:06:20;99318.09;;;9.31;100.00
50790;BME280;37287;47.554;7.844;2024-01-25T12:08:48;99311.00;;;9.38;100.00
50790;BME280;37287;47.554;7.844;2024-01-25T12:11:15;99313.03;;;9.41;100.00
50790;BME280;37287;47.554;7.844;2024-01-25T12:13:42;99303.81;;;9.42;100.00
50790;BME280;37287;47.554;7.844;2024-01-25T12:16:11;99305.66;;;9.51;100.00
50790;BME280;37287;47.554;7.844;2024-01-25T12:18:40;99306.00;;;9.49;100.00
50790;BME280;37287;47.554;7.844;2024-01-25T12:21:07;99297.13;;;9.61;100.00
50790;BME280;37287;47.554;7.844;2024-01-25T12:26:04;99299.81;;;9.61;100.00
50790;BME280;37287;47.554;7.844;2024-01-25T12:28:31;99297.13;;;9.61;100.00
50790;BME280;37287;47.554;7.844;2024-01-25T12:30:59;99294.56;;;9.64;100.00
50790;BME280;37287;47.554;7.844;2024-01-25T12:33:27;99293.75;;;9.64;100.00
50790;BME280;37287;47.554;7.844;2024-01-25T12:35:54;99282.94;;;9.64;100.00
50790;BME280;37287;47.554;7.844;2024-01-25T12:38:25;99290.69;;;9.66;100.00
50790;BME280;37287;47.554;7.844;2024-01-25T12:40:52;99284.19;;;9.67;100.00
50790;BME280;37287;47.554;7.844;2024-01-25T12:43:19;99276.88;;;9.67;100.00
50790;BME280;37287;47.554;7.844;2024-01-25T12:45:52;99272.25;;;9.68;100.00
50790;BME280;37287;47.554;7.844;2024-01-25T12:48:23;99263.13;;;9.72;100.00
50790;BME280;37287;47.554;7.844;2024-01-25T12:50:50;99266.28;;;9.74;100.00
50790;BME280;37287;47.554;7.844;2024-01-25T12:53:17;99266.72;;;9.76;100.00
50790;BME280;37287;47.554;7.844;2024-01-25T12:55:44;99260.31;;;9.81;100.00
50790;BME280;37287;47.554;7.844;2024-01-25T12:58:10;99252.19;;;9.81;100.00
50790;BME280;37287;47.554;7.844;2024-01-25T13:00:38;99255.81;;;9.85;100.00
50790;BME280;37287;47.554;7.844;2024-01-25T13:03:04;99248.59;;;9.89;100.00